Time;durP1;ratioP1;P1;durP2;ratioP2;P2;SDS_P1;SDS_P2;PMS_P1;PMS_P2;Temp;Humidity;BMP_temperature;BMP_pressure;BME280_temperature;BME280_humidity;BME280_pressure;Samples;Min_cycle;Max_cycle;Signal;HPM_P1;HPM_P2
2023/01/25 00:00:00;;;;;;;21.47;12.37;;;;;;;-1.62;100.00;97908.91;5096253;28;20463;-73
2023/01/25 00:02:30;;;;;;;20.03;14.00;;;;;;;-1.60;100.00;97914.69;5096337;28;20440;-73
2023/01/25 00:04:57;;;;;;;19.17;13.67;;;;;;;-1.57;100.00;97923.84;5085168;28;20528;-73
2023/01/25 00:07:23;;;;;;;24.73;12.13;;;;;;;-1.71;100.00;97897.22;5070595;28;20525;-73
2023/01/25 00:09:50;;;;;;;16.27;12.07;;;;;;;-1.66;100.00;97909.53;5070399;28;20471;-73
2023/01/25 00:12:17;;;;;;;20.10;12.43;;;;;;;-1.72;100.00;97895.63;5069975;28;20432;-73
2023/01/25 00:14:46;;;;;;;17.50;11.20;;;;;;;-1.56;100.00;97923.63;5070028;28;20527;-73
2023/01/25 00:17:12;;;;;;;17.53;10.73;;;;;;;-1.66;100.00;97891.38;5071593;28;20470;-73
2023/01/25 00:19:42;;;;;;;17.33;12.43;;;;;;;-1.59;100.00;97910.31;5090108;28;20508;-73
2023/01/25 00:22:09;;;;;;;19.70;12.40;;;;;;;-1.57;100.00;97919.47;5041083;28;20447;-74
2023/01/25 00:24:35;;;;;;;23.87;13.10;;;;;;;-1.55;100.00;97927.81;5049373;28;20445;-74
2023/01/25 00:27:02;;;;;;;16.63;11.97;;;;;;;-1.75;100.00;97893.41;5049244;28;20480;-74
2023/01/25 00:29:30;;;;;;;18.70;13.37;;;;;;;-1.74;100.00;97896.81;5053469;28;20883;-73
2023/01/25 00:32:00;;;;;;;17.90;12.10;;;;;;;-1.63;100.00;97924.66;5070626;28;21236;-73
2023/01/25 00:34:28;;;;;;;16.10;10.47;;;;;;;-1.61;100.00;97920.84;5083673;28;20792;-73
2023/01/25 00:37:00;;;;;;;25.40;11.87;;;;;;;-1.64;100.00;97912.72;5058805;28;20457;-73
2023/01/25 00:39:27;;;;;;;17.07;11.10;;;;;;;-1.65;100.00;97914.50;5064230;28;20439;-73
2023/01/25 00:41:54;;;;;;;15.93;10.57;;;;;;;-1.63;100.00;97922.06;5072969;28;20440;-73
2023/01/25 00:44:22;;;;;;;16.90;11.47;;;;;;;-1.73;100.00;97896.63;5056499;28;20521;-74
2023/01/25 00:46:51;;;;;;;14.20;10.80;;;;;;;-1.69;100.00;97878.84;5056198;28;20862;-73
2023/01/25 00:49:23;;;;;;;19.83;11.30;;;;;;;-1.57;100.00;97892.72;5056258;28;20704;-73
2023/01/25 00:51:51;;;;;;;16.50;10.67;;;;;;;-1.50;100.00;97906.44;5072815;28;20431;-73
2023/01/25 00:54:19;;;;;;;18.57;10.70;;;;;;;-1.45;100.00;97906.63;5072781;28;20460;-73
2023/01/25 00:56:46;;;;;;;16.67;10.80;;;;;;;-1.46;100.00;97904.25;5056155;28;20822;-73
2023/01/25 00:59:13;;;;;;;22.37;11.50;;;;;;;-1.62;100.00;97874.41;5072773;28;20436;-74
2023/01/25 01:01:41;;;;;;;15.10;10.47;;;;;;;-1.49;100.00;97902.84;5072829;28;20436;-73
2023/01/25 01:04:08;;;;;;;15.00;10.20;;;;;;;-1.64;100.00;97884.19;5073926;28;20428;-73
2023/01/25 01:06:36;;;;;;;14.60;8.63;;;;;;;-1.74;100.00;97881.25;5073092;28;20988;-73
2023/01/25 01:09:05;;;;;;;16.27;10.70;;;;;;;-1.79;100.00;97858.56;5072517;28;20538;-73
2023/01/25 01:11:32;;;;;;;18.73;11.97;;;;;;;-1.41;100.00;97901.81;5050749;28;20471;-73
2023/01/25 01:13:59;;;;;;;17.67;10.73;;;;;;;-1.78;100.00;97844.59;5086452;28;20466;-73
2023/01/25 01:16:25;;;;;;;19.37;11.23;;;;;;;-1.44;100.00;97884.88;5074416;28;20555;-73
2023/01/25 01:18:53;;;;;;;16.20;10.13;;;;;;;-1.51;100.00;97877.13;5088554;28;20939;-73
2023/01/25 01:21:20;;;;;;;18.63;11.70;;;;;;;-1.72;100.00;97880.06;5074117;28;20477;-74
2023/01/25 01:23:47;;;;;;;16.63;11.20;;;;;;;-1.91;100.00;97853.25;5062399;28;20447;-73
2023/01/25 01:26:18;;;;;;;16.87;10.30;;;;;;;-1.61;100.00;97894.94;5072167;28;20982;-73
2023/01/25 01:28:45;;;;;;;21.27;13.50;;;;;;;-1.59;100.00;97892.16;5075099;28;20451;-73
2023/01/25 01:31:17;;;;;;;25.10;11.57;;;;;;;-1.44;100.00;97897.84;5066865;28;20448;-73
2023/01/25 01:33:52;;;;;;;18.73;12.20;;;;;;;-1.49;100.00;97890.66;5059299;28;20440;-73
2023/01/25 01:36:22;;;;;;;18.17;12.40;;;;;;;-1.52;100.00;97888.50;5072110;28;20460;-74
2023/01/25 01:38:49;;;;;;;15.03;11.00;;;;;;;-1.56;100.00;97883.94;5078344;28;20518;-74
2023/01/25 01:41:16;;;;;;;17.90;11.37;;;;;;;-1.63;100.00;97893.56;5065438;28;20495;-73
2023/01/25 01:43:43;;;;;;;21.10;12.13;;;;;;;-1.73;100.00;97888.84;5083419;28;20857;-73
2023/01/25 01:46:22;;;;;;;19.93;11.43;;;;;;;-1.65;100.00;97900.75;5092025;28;20467;-73
2023/01/25 01:49:00;;;;;;;17.40;10.50;;;;;;;-1.62;100.00;97885.56;5055635;28;20435;-73
2023/01/25 01:51:45;;;;;;;13.73;9.77;;;;;;;-1.78;100.00;97862.75;5065790;28;20463;-74
2023/01/25 01:54:23;;;;;;;12.97;10.17;;;;;;;-1.63;100.00;97889.16;5066665;28;20900;-73
2023/01/25 01:57:15;;;;;;;14.90;10.47;;;;;;;-1.62;100.00;97884.78;5063337;28;20500;-73
2023/01/25 01:59:49;;;;;;;13.70;10.93;;;;;;;-1.68;100.00;97896.00;5043386;28;20440;-73
2023/01/25 02:02:16;;;;;;;20.37;11.30;;;;;;;-1.90;100.00;97857.41;5058673;28;20432;-73
2023/01/25 02:04:47;;;;;;;14.13;8.73;;;;;;;-1.76;100.00;97865.91;5084874;28;20447;-73
2023/01/25 02:07:19;;;;;;;14.30;10.20;;;;;;;-1.65;100.00;97883.41;5084559;28;20558;-73
2023/01/25 02:09:49;;;;;;;16.13;10.17;;;;;;;-1.57;100.00;97888.34;5067694;28;20480;-73
2023/01/25 02:12:17;;;;;;;14.80;10.17;;;;;;;-1.75;100.00;97853.75;5068396;28;20940;-73
2023/01/25 02:14:51;;;;;;;17.43;11.10;;;;;;;-1.77;100.00;97856.56;5066166;28;20435;-73
2023/01/25 02:17:23;;;;;;;15.67;11.40;;;;;;;-1.54;100.00;97889.72;5074312;28;20451;-73
2023/01/25 02:19:59;;;;;;;14.07;9.90;;;;;;;-1.59;100.00;97885.16;5080852;28;20439;-73
2023/01/25 02:22:39;;;;;;;16.60;10.37;;;;;;;-1.67;100.00;97856.09;5060212;28;20463;-73
2023/01/25 02:25:10;;;;;;;16.83;11.27;;;;;;;-1.46;100.00;97896.47;5079022;28;20795;-73
2023/01/25 02:27:45;;;;;;;17.57;10.30;;;;;;;-1.76;100.00;97859.94;5083292;28;20472;-73
2023/01/25 02:30:12;;;;;;;12.90;8.73;;;;;;;-1.53;100.00;97899.09;5084690;28;20489;-73
2023/01/25 02:32:41;;;;;;;12.43;9.10;;;;;;;-1.70;100.00;97874.66;5070939;28;20523;-73
2023/01/25 02:35:21;;;;;;;13.47;10.53;;;;;;;-1.51;100.00;97897.84;5084363;28;20464;-73
2023/01/25 02:37:49;;;;;;;15.27;10.13;;;;;;;-1.52;100.00;97896.28;5054433;28;20460;-73
2023/01/25 02:40:17;;;;;;;15.07;9.73;;;;;;;-1.70;100.00;97866.88;5054293;28;20432;-75
2023/01/25 02:42:45;;;;;;;16.13;11.70;;;;;;;-1.58;100.00;97883.38;5054452;28;20432;-75
2023/01/25 02:45:17;;;;;;;12.60;8.10;;;;;;;-1.54;100.00;97898.28;5070672;28;20450;-75
2023/01/25 02:47:44;;;;;;;16.17;10.30;;;;;;;-1.76;100.00;97868.50;5070712;28;20510;-75
2023/01/25 02:50:11;;;;;;;15.30;9.10;;;;;;;-1.54;100.00;97894.91;5070440;28;20437;-74
2023/01/25 02:52:40;;;;;;;17.07;11.47;;;;;;;-1.58;100.00;97885.97;5070731;28;20471;-75
2023/01/25 02:55:08;;;;;;;11.87;8.80;;;;;;;-1.60;100.00;97886.16;5070586;28;20447;-75
2023/01/25 02:57:37;;;;;;;15.10;9.70;;;;;;;-1.79;100.00;97854.16;5050702;28;20469;-75
2023/01/25 03:00:06;;;;;;;15.00;10.83;;;;;;;-1.61;100.00;97888.94;5054041;28;20443;-75
2023/01/25 03:02:32;;;;;;;16.70;10.53;;;;;;;-1.75;100.00;97844.16;5070353;28;20432;-75
2023/01/25 03:04:59;;;;;;;16.23;10.20;;;;;;;-1.91;100.00;97837.69;5053829;28;20943;-75
2023/01/25 03:07:26;;;;;;;11.33;8.10;;;;;;;-1.57;100.00;97888.34;5070122;28;20478;-75
2023/01/25 03:09:54;;;;;;;15.50;8.70;;;;;;;-1.71;100.00;97849.75;5070167;28;20436;-75
2023/01/25 03:12:22;;;;;;;17.50;9.90;;;;;;;-1.72;100.00;97855.94;5070151;28;20443;-75
2023/01/25 03:14:49;;;;;;;15.10;8.87;;;;;;;-1.68;100.00;97842.34;5070385;28;20501;-75
2023/01/25 03:17:17;;;;;;;15.93;9.43;;;;;;;-1.56;100.00;97865.78;5055363;28;20452;-75
2023/01/25 03:19:44;;;;;;;12.40;8.17;;;;;;;-1.62;100.00;97844.06;5063856;28;20530;-75
2023/01/25 03:22:11;;;;;;;14.17;9.03;;;;;;;-1.45;100.00;97864.34;5080352;28;20472;-75
2023/01/25 03:24:41;;;;;;;11.60;8.77;;;;;;;-1.42;100.00;97867.28;5049985;28;20473;-75
2023/01/25 03:27:13;;;;;;;10.97;7.50;;;;;;;-1.43;100.00;97859.72;5067544;28;20471;-75
2023/01/25 03:29:46;;;;;;;7.93;6.77;;;;;;;-1.63;100.00;97826.13;5070037;28;20447;-75
2023/01/25 03:32:17;;;;;;;11.60;7.43;;;;;;;-1.46;100.00;97865.34;5069960;28;20964;-73
2023/01/25 03:34:44;;;;;;;8.93;7.00;;;;;;;-1.74;100.00;97806.06;5069944;28;20463;-75
2023/01/25 03:37:12;;;;;;;12.33;8.17;;;;;;;-1.42;100.00;97856.13;5049996;28;20450;-75
2023/01/25 03:39:39;;;;;;;10.60;7.30;;;;;;;-1.39;100.00;97859.06;5050017;28;20448;-75
2023/01/25 03:42:06;;;;;;;9.60;6.87;;;;;;;-1.39;100.00;97853.88;5069852;28;20579;-75
2023/01/25 03:44:33;;;;;;;10.23;8.17;;;;;;;-1.64;100.00;97814.19;5069836;28;20462;-74
2023/01/25 03:47:00;;;;;;;11.70;8.70;;;;;;;-1.29;100.00;97840.44;5069658;28;20976;-75
2023/01/25 03:49:34;;;;;;;12.03;8.40;;;;;;;-1.54;100.00;97794.56;5069788;28;20446;-75
2023/01/25 03:52:02;;;;;;;12.77;8.23;;;;;;;-1.38;100.00;97820.97;5070044;28;21005;-74
2023/01/25 03:54:35;;;;;;;10.77;8.17;;;;;;;-1.46;100.00;97811.66;5069868;28;20435;-75
2023/01/25 03:57:02;;;;;;;10.47;8.13;;;;;;;-1.30;100.00;97823.31;5053368;28;20456;-75
2023/01/25 03:59:32;;;;;;;10.13;6.90;;;;;;;-1.77;100.00;97755.44;5053182;28;20530;-75
2023/01/25 04:01:58;;;;;;;10.27;7.30;;;;;;;-1.25;100.00;97820.84;5070016;28;20436;-75
2023/01/25 04:04:25;;;;;;;14.20;10.10;;;;;;;-0.98;100.00;97824.78;5073785;28;20481;-75
2023/01/25 04:06:52;;;;;;;16.73;8.47;;;;;;;-1.30;100.00;97797.34;5073700;28;20460;-75
2023/01/25 04:09:21;;;;;;;12.03;7.50;;;;;;;-1.54;100.00;97760.84;5073780;28;20479;-75
2023/01/25 04:11:51;;;;;;;12.93;8.07;;;;;;;-1.41;100.00;97778.09;5057555;28;20464;-75
2023/01/25 04:14:18;;;;;;;10.77;7.63;;;;;;;-1.51;100.00;97780.38;5073781;28;20452;-75
2023/01/25 04:17:07;;;;;;;16.40;8.00;;;;;;;-1.18;100.00;97794.84;5074383;28;20460;-75
2023/01/25 04:19:40;;;;;;;11.83;6.70;;;;;;;-1.40;100.00;97766.72;5084455;28;20843;-74
2023/01/25 04:22:11;;;;;;;12.77;7.10;;;;;;;-1.55;100.00;97750.69;5057509;28;20455;-75
2023/01/25 04:24:38;;;;;;;11.43;7.33;;;;;;;-1.38;100.00;97798.41;5057008;28;20806;-75
2023/01/25 04:27:05;;;;;;;10.17;9.07;;;;;;;-1.43;100.00;97777.53;5073220;28;20456;-75
2023/01/25 04:29:38;;;;;;;9.90;6.80;;;;;;;-1.65;100.00;97766.72;5073406;28;20513;-75
2023/01/25 04:32:12;;;;;;;11.30;8.70;;;;;;;-1.74;100.00;97754.22;5073393;28;20435;-75
2023/01/25 04:34:39;;;;;;;12.80;9.40;;;;;;;-1.82;100.00;97731.97;5057200;28;20472;-75
2023/01/25 04:37:11;;;;;;;10.23;7.33;;;;;;;-1.58;100.00;97764.88;5073238;28;20466;-75
2023/01/25 04:39:48;;;;;;;10.57;8.00;;;;;;;-1.57;100.00;97758.69;5073206;28;20826;-75
2023/01/25 04:42:15;;;;;;;12.07;7.83;;;;;;;-1.34;100.00;97784.00;5073155;28;20459;-73
2023/01/25 04:44:45;;;;;;;14.40;7.47;;;;;;;-1.42;100.00;97767.94;5073233;28;20428;-73
2023/01/25 04:47:12;;;;;;;9.27;7.27;;;;;;;-1.49;100.00;97763.59;5073014;28;20569;-73
2023/01/25 04:49:38;;;;;;;24.73;13.00;;;;;;;-1.51;100.00;97746.66;5072985;28;20432;-73
2023/01/25 04:52:05;;;;;;;11.83;7.90;;;;;;;-1.37;100.00;97771.47;5056713;28;20978;-73
2023/01/25 04:54:32;;;;;;;12.80;8.60;;;;;;;-1.53;100.00;97753.88;5043186;28;20540;-73
2023/01/25 04:56:59;;;;;;;11.83;8.43;;;;;;;-2.65;100.00;97578.63;5072815;28;20547;-73
2023/01/25 04:59:26;;;;;;;9.57;6.50;;;;;;;-1.50;100.00;97740.47;5073184;28;20791;-73
2023/01/25 05:01:53;;;;;;;10.10;8.00;;;;;;;-1.29;100.00;97765.22;5072737;28;20452;-72
2023/01/25 05:04:20;;;;;;;13.50;7.87;;;;;;;-1.27;100.00;97769.19;5072637;28;21010;-73
2023/01/25 05:06:48;;;;;;;9.33;7.53;;;;;;;-1.46;100.00;97749.44;5072729;28;20517;-73
2023/01/25 05:09:16;;;;;;;12.30;7.73;;;;;;;-1.63;100.00;97730.22;5072499;28;20503;-74
2023/01/25 05:11:44;;;;;;;12.87;8.20;;;;;;;-1.36;100.00;97760.06;5072629;28;20448;-73
2023/01/25 05:14:19;;;;;;;9.70;8.00;;;;;;;-1.50;100.00;97756.81;5071391;28;20855;-73
2023/01/25 05:16:46;;;;;;;10.00;8.43;;;;;;;-1.75;100.00;97717.16;5052539;28;20957;-73
2023/01/25 05:19:13;;;;;;;13.17;7.73;;;;;;;-1.59;100.00;97749.53;5084320;28;20451;-73
2023/01/25 05:21:58;;;;;;;10.30;8.23;;;;;;;-1.51;100.00;97755.22;5072438;28;20451;-73
2023/01/25 05:24:44;;;;;;;13.37;8.67;;;;;;;-1.43;100.00;97758.56;5072319;28;20986;-73
2023/01/25 05:27:16;;;;;;;11.60;7.80;;;;;;;-1.19;100.00;97749.97;5055959;28;20460;-74
2023/01/25 05:29:52;;;;;;;15.03;7.67;;;;;;;-1.15;100.00;97747.72;5074201;28;20517;-74
2023/01/25 05:32:22;;;;;;;11.60;8.70;;;;;;;-1.29;100.00;97747.84;5059120;28;20436;-74
2023/01/25 05:34:49;;;;;;;14.73;9.90;;;;;;;-1.31;100.00;97749.88;5085361;28;20458;-74
2023/01/25 05:37:19;;;;;;;11.57;8.23;;;;;;;-1.17;100.00;97755.72;5066660;28;20848;-74
2023/01/25 05:39:51;;;;;;;12.07;8.00;;;;;;;-1.33;100.00;97732.94;5062794;28;20437;-74
2023/01/25 05:42:18;;;;;;;13.53;9.10;;;;;;;-1.29;100.00;97765.22;5083996;28;20436;-74
2023/01/25 05:44:45;;;;;;;12.20;8.27;;;;;;;-1.51;100.00;97733.69;5067082;28;20435;-74
2023/01/25 05:47:16;;;;;;;11.50;7.50;;;;;;;-1.39;100.00;97759.72;5045017;28;20449;-74
2023/01/25 05:49:43;;;;;;;16.10;8.87;;;;;;;-1.58;100.00;97720.00;5075883;28;20489;-75
2023/01/25 05:52:16;;;;;;;14.83;8.93;;;;;;;-1.57;100.00;97730.16;5108235;28;20436;-76
2023/01/25 05:54:43;;;;;;;12.30;9.17;;;;;;;-1.48;100.00;97738.44;5078754;28;20435;-76
2023/01/25 05:57:15;;;;;;;10.70;7.87;;;;;;;-1.55;100.00;97730.75;5071988;28;20449;-74
2023/01/25 05:59:42;;;;;;;11.97;8.73;;;;;;;-1.26;100.00;97755.19;5081509;28;20487;-74
2023/01/25 06:02:12;;;;;;;12.20;8.50;;;;;;;-1.21;100.00;97723.41;5075553;28;20461;-74
2023/01/25 06:04:39;;;;;;;12.60;9.07;;;;;;;-1.15;100.00;97717.38;5078541;28;20435;-74
2023/01/25 06:07:07;;;;;;;10.37;7.20;;;;;;;-0.92;100.00;97746.06;5079684;28;20887;-73
2023/01/25 06:09:35;;;;;;;9.53;7.47;;;;;;;-0.93;100.00;97759.25;5079718;28;20499;-75
2023/01/25 06:12:02;;;;;;;9.93;8.20;;;;;;;-0.98;100.00;97749.50;5048048;28;20433;-74
2023/01/25 06:14:29;;;;;;;16.77;10.03;;;;;;;-1.09;100.00;97757.22;5057981;28;20462;-74
2023/01/25 06:16:56;;;;;;;14.67;9.60;;;;;;;-1.34;100.00;97746.88;5071396;28;20464;-74
2023/01/25 06:19:23;;;;;;;19.23;12.93;;;;;;;-1.54;100.00;97734.13;5086187;28;20435;-73
2023/01/25 06:21:58;;;;;;;14.77;10.00;;;;;;;-1.83;100.00;97710.44;5085194;28;20789;-74
2023/01/25 06:24:25;;;;;;;14.57;10.67;;;;;;;-1.58;100.00;97746.72;5059702;28;20489;-73
2023/01/25 06:26:52;;;;;;;18.87;12.60;;;;;;;-1.65;100.00;97714.06;5084134;28;20546;-74
2023/01/25 06:29:19;;;;;;;20.50;12.40;;;;;;;-1.48;100.00;97748.81;5072460;28;20460;-74
2023/01/25 06:31:45;;;;;;;13.57;8.70;;;;;;;-1.62;100.00;97729.19;5082690;28;20938;-72
2023/01/25 06:34:12;;;;;;;15.43;9.30;;;;;;;-1.52;100.00;97751.06;5051526;28;20780;-73
2023/01/25 06:36:39;;;;;;;13.00;9.00;;;;;;;-1.51;100.00;97746.66;5078280;28;20530;-72
2023/01/25 06:39:08;;;;;;;18.30;11.60;;;;;;;-1.49;100.00;97745.44;5069252;28;20524;-72
2023/01/25 06:41:34;;;;;;;14.37;10.63;;;;;;;-1.59;100.00;97746.94;5077623;28;20794;-72
2023/01/25 06:44:01;;;;;;;15.57;9.00;;;;;;;-1.52;100.00;97737.28;5072124;28;20437;-73
2023/01/25 06:46:30;;;;;;;16.63;8.93;;;;;;;-1.29;100.00;97741.88;5067153;28;20536;-71
2023/01/25 06:48:57;;;;;;;15.63;11.00;;;;;;;-1.48;100.00;97713.31;5070657;28;20460;-71
2023/01/25 06:51:24;;;;;;;12.10;10.40;;;;;;;-1.22;100.00;97740.78;5070913;28;20433;-71
2023/01/25 06:53:50;;;;;;;17.40;10.97;;;;;;;-1.19;100.00;97742.16;5070632;28;20447;-71
2023/01/25 06:56:20;;;;;;;13.73;10.40;;;;;;;-1.26;100.00;97744.81;5073350;28;20451;-71
2023/01/25 06:58:48;;;;;;;17.27;10.60;;;;;;;-1.31;100.00;97739.50;5064335;28;20428;-71
2023/01/25 07:01:18;;;;;;;15.90;12.10;;;;;;;-1.44;100.00;97737.03;5074606;28;20942;-71
2023/01/25 07:03:50;;;;;;;16.83;13.40;;;;;;;-1.47;100.00;97727.06;5067914;28;20801;-71
2023/01/25 07:06:17;;;;;;;18.50;11.37;;;;;;;-1.45;100.00;97735.44;5069257;28;20464;-74
2023/01/25 07:08:44;;;;;;;14.00;10.90;;;;;;;-1.55;100.00;97735.94;5071979;28;20550;-74
2023/01/25 07:11:12;;;;;;;17.23;11.70;;;;;;;-1.90;100.00;97688.97;5070390;28;20519;-74
2023/01/25 07:13:41;;;;;;;14.70;12.40;;;;;;;-1.84;100.00;97698.50;5083538;28;20439;-74
2023/01/25 07:16:12;;;;;;;18.23;13.00;;;;;;;-1.53;100.00;97748.69;5056875;28;20424;-73
2023/01/25 07:18:39;;;;;;;16.00;13.57;;;;;;;-1.49;100.00;97750.63;5083158;28;20435;-74
2023/01/25 07:21:14;;;;;;;21.27;12.67;;;;;;;-1.75;100.00;97717.16;5078128;28;20505;-74
2023/01/25 07:23:41;;;;;;;17.03;12.40;;;;;;;-1.55;100.00;97735.94;5058873;28;20437;-74
2023/01/25 07:26:17;;;;;;;24.07;12.97;;;;;;;-1.54;100.00;97731.53;5049840;28;20997;-74
2023/01/25 07:28:45;;;;;;;14.60;11.50;;;;;;;-1.38;100.00;97736.16;5066996;28;20467;-74
2023/01/25 07:31:12;;;;;;;18.63;11.10;;;;;;;-1.51;100.00;97737.06;5053408;28;20967;-74
2023/01/25 07:33:39;;;;;;;16.77;13.87;;;;;;;-1.39;100.00;97738.97;5069918;28;20430;-74
2023/01/25 07:36:07;;;;;;;14.37;10.43;;;;;;;-1.46;100.00;97741.66;5081006;28;20474;-74
2023/01/25 07:38:35;;;;;;;16.07;10.20;;;;;;;-1.59;100.00;97727.00;5052705;28;20890;-74
2023/01/25 07:41:02;;;;;;;13.07;9.50;;;;;;;-1.67;100.00;97710.91;5049712;28;20813;-74
2023/01/25 07:43:29;;;;;;;19.40;10.80;;;;;;;-1.60;100.00;97720.22;5073326;28;20415;-74
2023/01/25 07:46:04;;;;;;;13.50;9.10;;;;;;;-1.63;100.00;97731.00;5049662;28;20516;-74
2023/01/25 07:48:32;;;;;;;14.80;9.20;;;;;;;-1.69;100.00;97725.88;5049617;28;20460;-74
2023/01/25 07:51:22;;;;;;;17.63;11.40;;;;;;;-1.90;100.00;97699.34;5064295;28;20432;-74
2023/01/25 07:53:54;;;;;;;15.20;11.33;;;;;;;-1.68;100.00;97723.09;5069833;28;20436;-74
2023/01/25 07:56:23;;;;;;;12.00;10.67;;;;;;;-1.57;100.00;97732.75;5083371;28;20440;-74
2023/01/25 07:58:55;;;;;;;15.57;9.70;;;;;;;-1.57;100.00;97709.41;5069769;28;20505;-74
2023/01/25 08:01:24;;;;;;;18.17;10.33;;;;;;;-1.34;100.00;97726.94;5070983;28;20434;-74
2023/01/25 08:03:51;;;;;;;18.03;11.00;;;;;;;-1.37;100.00;97742.13;5071393;28;20783;-74
2023/01/25 08:06:29;;;;;;;18.40;13.10;;;;;;;-1.20;100.00;97727.63;5069646;28;20465;-74
2023/01/25 08:08:57;;;;;;;13.50;9.50;;;;;;;-1.15;100.00;97740.72;5069443;28;20557;-74
2023/01/25 08:11:27;;;;;;;13.77;9.80;;;;;;;-1.31;100.00;97710.16;5061574;28;20440;-74
2023/01/25 08:13:54;;;;;;;12.80;8.60;;;;;;;-1.15;100.00;97745.13;5047762;28;20436;-74
2023/01/25 08:16:24;;;;;;;16.63;9.70;;;;;;;-1.26;100.00;97720.69;5060895;28;20457;-74
2023/01/25 08:18:53;;;;;;;16.87;10.53;;;;;;;-1.21;100.00;97742.34;5078991;28;20427;-74
2023/01/25 08:21:23;;;;;;;13.10;10.70;;;;;;;-1.37;100.00;97739.53;5069646;28;20823;-74
2023/01/25 08:23:50;;;;;;;13.23;9.50;;;;;;;-1.37;100.00;97739.53;5069483;28;20471;-74
2023/01/25 08:26:17;;;;;;;20.27;11.50;;;;;;;-1.60;100.00;97709.84;5052775;28;20468;-74
2023/01/25 08:28:44;;;;;;;15.70;9.27;;;;;;;-1.44;100.00;97737.03;5052794;28;20995;-74
2023/01/25 08:31:17;;;;;;;16.17;10.30;;;;;;;-1.66;100.00;97686.56;5069477;28;20535;-74
2023/01/25 08:33:45;;;;;;;14.30;10.20;;;;;;;-1.49;100.00;97724.69;5070905;28;20448;-74
2023/01/25 08:36:13;;;;;;;18.03;10.10;;;;;;;-1.49;100.00;97722.09;5069425;28;20555;-74
2023/01/25 08:38:40;;;;;;;14.30;11.10;;;;;;;-1.62;100.00;97692.91;5075100;28;20817;-73
2023/01/25 08:41:16;;;;;;;16.47;11.37;;;;;;;-1.48;100.00;97715.09;5065374;28;20429;-74
2023/01/25 08:43:44;;;;;;;19.20;11.50;;;;;;;-1.54;100.00;97709.00;5065474;28;20407;-74
2023/01/25 08:46:12;;;;;;;14.80;9.90;;;;;;;-1.54;100.00;97715.97;5044178;28;20460;-74
2023/01/25 08:48:39;;;;;;;18.27;10.90;;;;;;;-1.49;100.00;97711.72;5057806;28;20883;-74
2023/01/25 08:51:14;;;;;;;17.07;10.10;;;;;;;-1.56;100.00;97711.00;5075337;28;20912;-74
2023/01/25 08:53:42;;;;;;;16.70;12.57;;;;;;;-1.53;100.00;97702.00;5076529;28;21012;-74
2023/01/25 08:56:11;;;;;;;11.17;8.83;;;;;;;-1.45;100.00;97704.31;5069849;28;20540;-74
2023/01/25 08:58:40;;;;;;;16.43;11.43;;;;;;;-1.35;100.00;97709.00;5083935;28;20429;-74
2023/01/25 09:01:09;;;;;;;15.73;11.40;;;;;;;-1.50;100.00;97694.56;5059847;28;20439;-74
2023/01/25 09:03:38;;;;;;;16.63;10.80;;;;;;;-1.44;100.00;97699.94;5052802;28;20431;-74
2023/01/25 09:06:06;;;;;;;21.10;12.23;;;;;;;-1.53;100.00;97676.84;5071507;28;20473;-74
2023/01/25 09:08:33;;;;;;;12.33;9.80;;;;;;;-1.40;100.00;97678.53;5074150;28;20908;-74
2023/01/25 09:11:20;;;;;;;16.33;10.20;;;;;;;-1.21;100.00;97695.66;5072314;28;20428;-74
2023/01/25 09:13:48;;;;;;;16.47;9.27;;;;;;;-1.29;100.00;97703.75;5073955;28;20455;-74
2023/01/25 09:16:18;;;;;;;17.63;11.90;;;;;;;-1.32;100.00;97687.84;5080159;28;20487;-74
2023/01/25 09:18:46;;;;;;;17.60;11.33;;;;;;;-1.54;100.00;97653.75;5074104;28;20939;-74
2023/01/25 09:21:17;;;;;;;24.87;13.40;;;;;;;-1.18;100.00;97693.66;5072696;28;20440;-74
2023/01/25 09:23:47;;;;;;;17.00;10.10;;;;;;;-1.42;100.00;97683.13;5072227;28;20439;-74
2023/01/25 09:26:33;;;;;;;16.60;11.27;;;;;;;-1.42;100.00;97703.09;5072110;28;20551;-74
2023/01/25 09:29:00;;;;;;;17.87;12.10;;;;;;;-1.62;100.00;97677.34;5073498;28;20452;-74
2023/01/25 09:31:28;;;;;;;12.73;9.17;;;;;;;-1.69;100.00;97681.81;5072322;28;21007;-74
2023/01/25 09:33:58;;;;;;;19.50;12.00;;;;;;;-1.80;100.00;97685.91;5079511;28;20437;-74
2023/01/25 09:36:24;;;;;;;22.43;12.23;;;;;;;-1.69;100.00;97703.34;5052097;28;20461;-74
2023/01/25 09:38:51;;;;;;;20.10;13.57;;;;;;;-1.78;100.00;97694.25;5059911;28;20416;-74
2023/01/25 09:41:50;;;;;;;19.33;14.17;;;;;;;-1.67;100.00;97700.53;5071944;28;20440;-74
2023/01/25 09:44:30;;;;;;;21.20;14.07;;;;;;;-1.72;100.00;97696.00;5055507;28;20491;-74
2023/01/25 09:47:16;;;;;;;15.30;10.40;;;;;;;-1.66;100.00;97686.56;5071753;28;20467;-74
2023/01/25 09:49:43;;;;;;;16.90;10.57;;;;;;;-1.75;100.00;97686.03;5074756;28;20468;-74
2023/01/25 09:52:31;;;;;;;16.43;10.97;;;;;;;-1.68;100.00;97686.00;5073179;28;20444;-74
2023/01/25 09:54:58;;;;;;;17.30;11.80;;;;;;;-1.59;100.00;97682.13;5084323;28;20436;-74
2023/01/25 09:57:36;;;;;;;20.57;12.87;;;;;;;-1.50;100.00;97675.63;5071695;28;20479;-74
2023/01/25 10:00:16;;;;;;;16.83;10.70;;;;;;;-1.33;100.00;97673.28;5070914;28;20894;-74
2023/01/25 10:03:09;;;;;;;18.63;12.27;;;;;;;-1.48;100.00;97664.03;5072956;28;20511;-74
2023/01/25 10:05:45;;;;;;;15.70;10.90;;;;;;;-1.24;100.00;97669.38;5071553;28;20477;-74
2023/01/25 10:08:43;;;;;;;17.33;10.63;;;;;;;-1.33;100.00;97671.47;5055005;28;20471;-74
2023/01/25 10:11:20;;;;;;;18.20;12.43;;;;;;;-1.45;100.00;97670.59;5071454;28;20511;-74
2023/01/25 10:13:47;;;;;;;21.87;12.80;;;;;;;-1.64;100.00;97635.28;5071869;28;20432;-74
2023/01/25 10:16:39;;;;;;;17.50;11.27;;;;;;;-1.40;100.00;97655.19;5076493;28;20500;-74
2023/01/25 10:19:24;;;;;;;22.07;14.27;;;;;;;-1.88;100.00;97585.09;5082190;28;20454;-74
2023/01/25 10:22:00;;;;;;;23.37;14.70;;;;;;;-1.32;100.00;97633.34;5071349;28;20424;-74
2023/01/25 10:24:51;;;;;;;19.10;12.27;;;;;;;-1.05;100.00;97657.19;5079855;28;20526;-74
2023/01/25 10:27:32;;;;;;;17.27;11.00;;;;;;;-1.21;100.00;97658.53;5056037;28;20558;-74
2023/01/25 10:30:25;;;;;;;18.07;13.10;;;;;;;-1.31;100.00;97660.88;5071045;28;20554;-74
2023/01/25 10:32:56;;;;;;;22.97;13.17;;;;;;;-1.48;100.00;97651.06;5072345;28;20421;-74
2023/01/25 10:35:29;;;;;;;21.50;14.50;;;;;;;-1.64;100.00;97628.31;5071095;28;20436;-74
2023/01/25 10:38:12;;;;;;;18.00;13.10;;;;;;;-1.83;100.00;97611.16;5072382;28;20440;-74
2023/01/25 10:40:45;;;;;;;19.50;13.03;;;;;;;-1.64;100.00;97630.91;5072154;28;20412;-74
2023/01/25 10:43:21;;;;;;;21.93;13.33;;;;;;;-1.66;100.00;97624.34;5053991;28;20432;-74
2023/01/25 10:45:49;;;;;;;19.07;12.37;;;;;;;-1.60;100.00;97619.09;5070722;28;21367;-74
2023/01/25 10:48:25;;;;;;;19.80;12.77;;;;;;;-1.67;100.00;97592.44;5064121;28;20433;-74
2023/01/25 10:50:56;;;;;;;15.33;10.60;;;;;;;-1.47;100.00;97612.94;5063421;28;20994;-74
2023/01/25 10:53:23;;;;;;;23.20;14.03;;;;;;;-1.46;100.00;97611.19;5070725;28;20436;-74
2023/01/25 10:56:08;;;;;;;23.53;14.57;;;;;;;-1.34;100.00;97610.19;5070445;28;20459;-74
2023/01/25 10:58:36;;;;;;;21.50;13.40;;;;;;;-1.66;100.00;97581.06;5081157;28;20462;-74
2023/01/25 11:01:12;;;;;;;20.17;13.37;;;;;;;-1.54;100.00;97604.47;5059536;28;20421;-74
2023/01/25 11:03:45;;;;;;;19.50;12.70;;;;;;;-1.56;100.00;97602.09;5062809;28;20416;-74
2023/01/25 11:06:12;;;;;;;16.73;13.30;;;;;;;-1.80;100.00;97571.84;5071646;28;20449;-74
2023/01/25 11:08:41;;;;;;;18.33;13.67;;;;;;;-1.63;100.00;97608.34;5053811;28;20448;-74
2023/01/25 11:11:30;;;;;;;21.30;13.90;;;;;;;-1.73;100.00;97579.56;5053560;28;20471;-74
2023/01/25 11:13:57;;;;;;;22.13;12.50;;;;;;;-1.64;100.00;97565.28;5071521;28;20432;-74
2023/01/25 11:16:30;;;;;;;20.37;14.03;;;;;;;-1.41;100.00;97596.53;5061480;28;20543;-73
2023/01/25 11:18:59;;;;;;;23.50;16.00;;;;;;;-1.27;100.00;97594.56;5081545;28;20446;-74
2023/01/25 11:21:29;;;;;;;23.27;13.83;;;;;;;-1.40;100.00;97564.41;5076078;28;20425;-74
2023/01/25 11:24:22;;;;;;;22.10;13.97;;;;;;;-0.99;100.00;97594.78;5080369;28;20428;-74
2023/01/25 11:26:48;;;;;;;19.13;12.60;;;;;;;-1.14;100.00;97567.66;5097038;28;20535;-74